Wetterdaten: Woche 14.05.07 - 20.05.07 (KW20)
Datum Zeit Temperatur Luftfeuchte Luftdruck Niederschlag Wind Richtung Sonnenschein Solar Taupunkt Windchill Windben
14.05.2007 00:00 19.3 C 64 % 1008.5 hPa 0.0 l/m 3.0 km/h (1 Bft) N-NO 0.00 h 0 W/m 12.4 C 19.3 C 5.8 km/h (2 Bft)
14.05.2007 01:00 18.6 C 69 % 1009.0 hPa 0.0 l/m 6.8 km/h (2 Bft) W-NW 0.00 h 0 W/m 12.8 C 18.6 C 11.2 km/h (2 Bft)
14.05.2007 02:00 17.4 C 71 % 1009.3 hPa 0.0 l/m 11.0 km/h (2 Bft) W-NW 0.00 h 0 W/m 12.0 C 17.4 C 16.9 km/h (3 Bft)
14.05.2007 03:00 16.0 C 73 % 1009.6 hPa 0.0 l/m 3.5 km/h (1 Bft) W 0.00 h 0 W/m 11.2 C 16.0 C 6.1 km/h (2 Bft)
14.05.2007 04:00 15.4 C 75 % 1010.0 hPa 0.0 l/m 1.6 km/h (1 Bft) O-SO 0.00 h 0 W/m 11.0 C 15.4 C 2.7 km/h (1 Bft)
14.05.2007 05:00 14.8 C 80 % 1010.0 hPa 0.0 l/m 1.0 km/h (0 Bft) O-SO 0.00 h 0 W/m 11.3 C 14.8 C 1.6 km/h (1 Bft)
14.05.2007 06:00 14.5 C 85 % 1010.4 hPa 0.0 l/m 0.4 km/h (0 Bft) O-SO 0.00 h 17 W/m 11.9 C 14.5 C 1.0 km/h (0 Bft)
14.05.2007 07:00 14.9 C 83 % 1010.6 hPa 0.0 l/m 0.4 km/h (0 Bft) O-SO 0.03 h 81 W/m 12.1 C 14.9 C 1.2 km/h (1 Bft)
14.05.2007 08:00 16.0 C 85 % 1010.5 hPa 0.0 l/m 2.0 km/h (1 Bft) N 0.17 h 186 W/m 13.4 C 16.0 C 3.7 km/h (1 Bft)
14.05.2007 09:00 17.7 C 76 % 1009.9 hPa 0.0 l/m 2.2 km/h (1 Bft) NW 0.72 h 428 W/m 13.4 C 17.7 C 4.3 km/h (1 Bft)
14.05.2007 10:00 18.5 C 69 % 1009.1 hPa 0.0 l/m 5.2 km/h (1 Bft) W 0.15 h 273 W/m 12.6 C 18.5 C 8.4 km/h (2 Bft)
14.05.2007 11:00 16.9 C 59 % 1009.5 hPa 0.0 l/m 10.9 km/h (2 Bft) W 0.00 h 114 W/m 8.7 C 16.9 C 16.6 km/h (3 Bft)
14.05.2007 12:00 15.6 C 67 % 1009.3 hPa 0.0 l/m 11.2 km/h (2 Bft) W-NW 0.03 h 187 W/m 9.5 C 15.6 C 17.4 km/h (3 Bft)
14.05.2007 13:00 16.2 C 67 % 1008.0 hPa 0.0 l/m 5.0 km/h (1 Bft) NW 0.17 h 267 W/m 10.1 C 16.2 C 7.9 km/h (2 Bft)
14.05.2007 14:00 16.1 C 70 % 1007.7 hPa 0.0 l/m 12.8 km/h (3 Bft) W 0.00 h 277 W/m 10.6 C 16.1 C 19.6 km/h (3 Bft)
14.05.2007 15:00 15.4 C 75 % 1006.8 hPa 0.0 l/m 8.3 km/h (2 Bft) W 0.00 h 179 W/m 11.0 C 15.4 C 13.6 km/h (3 Bft)
14.05.2007 16:00 15.1 C 79 % 1005.5 hPa 0.0 l/m 5.2 km/h (1 Bft) W-NW 0.00 h 118 W/m 11.4 C 15.1 C 8.5 km/h (2 Bft)
14.05.2007 17:00 12.8 C 89 % 1006.5 hPa 4.0 l/m 12.8 km/h (3 Bft) W 0.00 h 14 W/m 11.1 C 12.8 C 20.5 km/h (4 Bft)
14.05.2007 18:00 11.3 C 96 % 1008.4 hPa 2.0 l/m 15.7 km/h (3 Bft) W 0.00 h 18 W/m 10.7 C 11.3 C 23.5 km/h (4 Bft)
14.05.2007 19:00 10.1 C 96 % 1011.0 hPa 0.8 l/m 15.8 km/h (3 Bft) W 0.00 h 29 W/m 9.5 C 9.7 C 23.8 km/h (4 Bft)
14.05.2007 20:00 9.6 C 96 % 1012.1 hPa 1.8 l/m 11.6 km/h (2 Bft) W 0.00 h 5 W/m 8.9 C 7.9 C 18.4 km/h (3 Bft)
14.05.2007 21:00 9.1 C 96 % 1012.9 hPa 0.6 l/m 10.8 km/h (2 Bft) W 0.00 h 0 W/m 8.5 C 7.5 C 17.2 km/h (3 Bft)
14.05.2007 22:00 9.1 C 97 % 1014.1 hPa 0.6 l/m 4.1 km/h (1 Bft) W-SW 0.00 h 0 W/m 8.6 C 8.8 C 6.9 km/h (2 Bft)
14.05.2007 23:00 9.1 C 96 % 1014.6 hPa 0.8 l/m 1.6 km/h (1 Bft) S-SW 0.00 h 0 W/m 8.5 C 9.0 C 4.2 km/h (1 Bft)
15.05.2007 00:00 9.2 C 96 % 1015.0 hPa 0.4 l/m 4.7 km/h (1 Bft) S-SO 0.00 h 0 W/m 8.6 C 8.8 C 8.8 km/h (2 Bft)
15.05.2007 01:00 9.1 C 94 % 1015.0 hPa 0.2 l/m 2.8 km/h (1 Bft) S-SO 0.00 h 0 W/m 8.1 C 8.9 C 5.6 km/h (1 Bft)
15.05.2007 02:00 8.9 C 94 % 1015.4 hPa 1.0 l/m 2.5 km/h (1 Bft) S-SO 0.00 h 0 W/m 8.0 C 8.8 C 5.0 km/h (1 Bft)
15.05.2007 03:00 8.8 C 95 % 1015.1 hPa 1.0 l/m 1.4 km/h (1 Bft) SO 0.00 h 0 W/m 8.0 C 8.8 C 3.1 km/h (1 Bft)
15.05.2007 04:00 8.7 C 95 % 1015.1 hPa 0.8 l/m 1.2 km/h (1 Bft) S-SO 0.00 h 0 W/m 8.0 C 8.7 C 2.6 km/h (1 Bft)
15.05.2007 05:00 8.7 C 96 % 1015.2 hPa 0.2 l/m 1.1 km/h (1 Bft) S-SO 0.00 h 0 W/m 8.0 C 8.7 C 2.8 km/h (1 Bft)
15.05.2007 06:00 8.7 C 97 % 1015.7 hPa 0.6 l/m 1.5 km/h (1 Bft) W-SW 0.00 h 16 W/m 8.2 C 8.7 C 4.1 km/h (1 Bft)
15.05.2007 07:00 8.9 C 98 % 1015.9 hPa 0.2 l/m 2.0 km/h (1 Bft) SW 0.00 h 42 W/m 8.6 C 8.9 C 5.0 km/h (1 Bft)
15.05.2007 08:00 9.2 C 98 % 1016.5 hPa 0.0 l/m 6.7 km/h (2 Bft) W 0.00 h 44 W/m 8.8 C 8.4 C 11.4 km/h (2 Bft)
15.05.2007 09:00 9.5 C 92 % 1017.1 hPa 0.0 l/m 13.2 km/h (3 Bft) W 0.00 h 121 W/m 8.3 C 7.6 C 20.8 km/h (4 Bft)
15.05.2007 10:00 10.1 C 86 % 1017.7 hPa 0.0 l/m 15.9 km/h (3 Bft) W 0.02 h 243 W/m 7.8 C 9.3 C 24.3 km/h (4 Bft)
15.05.2007 11:00 10.6 C 79 % 1018.2 hPa 0.0 l/m 18.5 km/h (3 Bft) W 0.27 h 361 W/m 7.1 C 10.6 C 27.8 km/h (4 Bft)
15.05.2007 12:00 11.2 C 73 % 1018.4 hPa 0.0 l/m 18.7 km/h (3 Bft) W 0.15 h 351 W/m 6.7 C 11.2 C 28.0 km/h (4 Bft)
15.05.2007 13:00 11.4 C 71 % 1018.7 hPa 0.0 l/m 15.6 km/h (3 Bft) W 0.00 h 306 W/m 6.4 C 11.4 C 24.3 km/h (4 Bft)
15.05.2007 14:00 12.0 C 66 % 1018.6 hPa 0.0 l/m 16.9 km/h (3 Bft) W 0.15 h 438 W/m 5.9 C 12.0 C 26.5 km/h (4 Bft)
15.05.2007 15:00 13.0 C 62 % 1018.5 hPa 0.0 l/m 17.4 km/h (3 Bft) W 0.30 h 501 W/m 5.8 C 13.0 C 25.6 km/h (4 Bft)
15.05.2007 16:00 13.1 C 62 % 1018.9 hPa 0.0 l/m 11.0 km/h (2 Bft) W 0.23 h 378 W/m 6.1 C 13.1 C 17.0 km/h (3 Bft)
15.05.2007 17:00 13.3 C 57 % 1018.6 hPa 0.0 l/m 11.2 km/h (2 Bft) W-NW 0.20 h 270 W/m 5.0 C 13.3 C 17.6 km/h (3 Bft)
15.05.2007 18:00 9.9 C 78 % 1019.5 hPa 0.4 l/m 8.2 km/h (2 Bft) W 0.13 h 111 W/m 6.2 C 9.6 C 13.0 km/h (3 Bft)
15.05.2007 19:00 10.9 C 78 % 1019.7 hPa 0.0 l/m 1.0 km/h (0 Bft) W-SW 0.65 h 150 W/m 7.2 C 10.9 C 2.7 km/h (1 Bft)
15.05.2007 20:00 9.6 C 83 % 1019.8 hPa 0.0 l/m 2.1 km/h (1 Bft) O-SO 0.00 h 14 W/m 6.9 C 9.6 C 3.5 km/h (1 Bft)
15.05.2007 21:00 8.9 C 90 % 1020.3 hPa 0.2 l/m 2.1 km/h (1 Bft) O-SO 0.00 h 0 W/m 7.4 C 8.8 C 4.5 km/h (1 Bft)
15.05.2007 22:00 8.2 C 89 % 1020.5 hPa 0.4 l/m 1.6 km/h (1 Bft) SO 0.00 h 0 W/m 6.5 C 8.2 C 2.9 km/h (1 Bft)
15.05.2007 23:00 7.7 C 91 % 1020.5 hPa 0.0 l/m 1.0 km/h (0 Bft) SO 0.00 h 0 W/m 6.4 C 7.7 C 1.7 km/h (1 Bft)
16.05.2007 00:00 6.6 C 95 % 1020.4 hPa 0.0 l/m 1.9 km/h (1 Bft) SO 0.00 h 0 W/m 5.9 C 6.6 C 2.9 km/h (1 Bft)
16.05.2007 01:00 6.0 C 96 % 1020.1 hPa 0.0 l/m 2.6 km/h (1 Bft) SO 0.00 h 0 W/m 5.4 C 6.0 C 3.8 km/h (1 Bft)
16.05.2007 02:00 5.5 C 96 % 1019.5 hPa 0.0 l/m 2.1 km/h (1 Bft) O-SO 0.00 h 0 W/m 4.9 C 5.4 C 3.0 km/h (1 Bft)
16.05.2007 03:00 5.0 C 97 % 1018.9 hPa 0.2 l/m 0.7 km/h (0 Bft) O-SO 0.00 h 0 W/m 4.5 C 5.0 C 1.1 km/h (1 Bft)
16.05.2007 04:00 4.8 C 98 % 1018.4 hPa 0.0 l/m 0.2 km/h (0 Bft) O-SO 0.00 h 0 W/m 4.5 C 4.8 C 0.4 km/h (0 Bft)
16.05.2007 05:00 5.2 C 99 % 1017.9 hPa 0.0 l/m 0.3 km/h (0 Bft) O-SO 0.00 h 6 W/m 5.0 C 5.2 C 0.5 km/h (0 Bft)
16.05.2007 06:00 5.7 C 99 % 1017.5 hPa 0.0 l/m 0.4 km/h (0 Bft) S 0.00 h 22 W/m 5.6 C 5.7 C 1.2 km/h (1 Bft)
16.05.2007 07:00 6.1 C 100 % 1017.5 hPa 0.0 l/m 0.3 km/h (0 Bft) S 0.00 h 81 W/m 6.1 C 6.1 C 1.1 km/h (0 Bft)
16.05.2007 08:00 7.5 C 96 % 1017.3 hPa 0.0 l/m 0.7 km/h (0 Bft) S 0.60 h 299 W/m 7.0 C 7.5 C 1.8 km/h (1 Bft)
16.05.2007 09:00 10.3 C 83 % 1016.6 hPa 0.0 l/m 2.4 km/h (1 Bft) S-SO 0.87 h 470 W/m 7.5 C 10.2 C 5.3 km/h (1 Bft)
16.05.2007 10:00 12.6 C 73 % 1015.8 hPa 0.0 l/m 3.3 km/h (1 Bft) W-SW 1.00 h 644 W/m 7.8 C 12.6 C 6.3 km/h (2 Bft)
16.05.2007 11:00 14.5 C 63 % 1015.2 hPa 0.0 l/m 4.2 km/h (1 Bft) W-SW 0.92 h 736 W/m 7.6 C 14.5 C 7.4 km/h (2 Bft)
16.05.2007 12:00 15.9 C 56 % 1014.7 hPa 0.0 l/m 4.9 km/h (1 Bft) S-SO 0.87 h 702 W/m 7.2 C 15.9 C 8.6 km/h (2 Bft)
16.05.2007 13:00 16.8 C 53 % 1014.1 hPa 0.0 l/m 5.5 km/h (1 Bft) W-SW 0.85 h 650 W/m 7.1 C 16.8 C 9.8 km/h (2 Bft)
16.05.2007 14:00 16.8 C 56 % 1013.7 hPa 0.0 l/m 4.4 km/h (1 Bft) W 0.40 h 496 W/m 7.9 C 16.8 C 8.5 km/h (2 Bft)
16.05.2007 15:00 16.3 C 56 % 1013.4 hPa 0.0 l/m 6.6 km/h (2 Bft) W 0.03 h 358 W/m 7.4 C 16.3 C 11.4 km/h (2 Bft)
16.05.2007 16:00 12.8 C 76 % 1014.0 hPa 0.0 l/m 14.2 km/h (3 Bft) W-NW 0.00 h 151 W/m 8.6 C 12.8 C 21.4 km/h (4 Bft)
16.05.2007 17:00 12.0 C 84 % 1014.6 hPa 0.2 l/m 8.7 km/h (2 Bft) W 0.00 h 146 W/m 9.3 C 12.0 C 13.2 km/h (3 Bft)
16.05.2007 18:00 11.2 C 88 % 1014.5 hPa 0.2 l/m 3.7 km/h (1 Bft) W 0.00 h 61 W/m 9.3 C 11.2 C 6.3 km/h (2 Bft)
16.05.2007 19:00 10.8 C 90 % 1014.4 hPa 0.4 l/m 1.2 km/h (1 Bft) S-SO 0.00 h 40 W/m 9.3 C 10.8 C 3.2 km/h (1 Bft)
16.05.2007 20:00 10.6 C 93 % 1014.2 hPa 0.6 l/m 0.7 km/h (0 Bft) S-SW 0.00 h 8 W/m 9.6 C 10.6 C 2.3 km/h (1 Bft)
16.05.2007 21:00 10.5 C 94 % 1014.1 hPa 0.0 l/m 2.1 km/h (1 Bft) S 0.00 h 0 W/m 9.6 C 10.5 C 4.8 km/h (1 Bft)
16.05.2007 22:00 10.5 C 94 % 1014.4 hPa 0.6 l/m 5.3 km/h (1 Bft) W 0.00 h 0 W/m 9.6 C 10.5 C 10.0 km/h (2 Bft)
16.05.2007 23:00 10.2 C 95 % 1014.8 hPa 1.0 l/m 13.6 km/h (3 Bft) W 0.00 h 0 W/m 9.4 C 9.5 C 21.7 km/h (4 Bft)
17.05.2007 00:00 9.8 C 96 % 1014.8 hPa 0.4 l/m 9.3 km/h (2 Bft) W 0.00 h 0 W/m 9.2 C 8.6 C 15.4 km/h (3 Bft)
17.05.2007 01:00 9.6 C 96 % 1014.6 hPa 0.0 l/m 3.2 km/h (1 Bft) W-SW 0.00 h 0 W/m 9.0 C 9.4 C 6.5 km/h (2 Bft)
17.05.2007 02:00 9.3 C 96 % 1014.2 hPa 0.4 l/m 3.5 km/h (1 Bft) W-SW 0.00 h 0 W/m 8.8 C 9.1 C 6.7 km/h (2 Bft)
17.05.2007 03:00 9.1 C 97 % 1014.1 hPa 0.6 l/m 3.3 km/h (1 Bft) W-SW 0.00 h 0 W/m 8.6 C 8.9 C 6.7 km/h (2 Bft)
17.05.2007 04:00 9.0 C 97 % 1013.9 hPa 1.4 l/m 1.4 km/h (1 Bft) S-SW 0.00 h 0 W/m 8.5 C 9.0 C 3.7 km/h (1 Bft)
17.05.2007 05:00 8.9 C 97 % 1013.4 hPa 1.0 l/m 2.6 km/h (1 Bft) S-SO 0.00 h 5 W/m 8.5 C 8.8 C 5.1 km/h (1 Bft)
17.05.2007 06:00 8.8 C 97 % 1012.7 hPa 0.8 l/m 1.6 km/h (1 Bft) S 0.00 h 8 W/m 8.4 C 8.8 C 3.8 km/h (1 Bft)
17.05.2007 07:00 9.0 C 97 % 1012.2 hPa 1.2 l/m 2.3 km/h (1 Bft) S-SO 0.00 h 23 W/m 8.5 C 8.9 C 5.5 km/h (1 Bft)
17.05.2007 08:00 9.1 C 97 % 1011.7 hPa 1.0 l/m 2.9 km/h (1 Bft) SW 0.00 h 67 W/m 8.6 C 9.0 C 6.4 km/h (2 Bft)
17.05.2007 09:00 9.4 C 97 % 1011.0 hPa 1.0 l/m 3.8 km/h (1 Bft) S-SW 0.00 h 121 W/m 9.0 C 9.2 C 8.6 km/h (2 Bft)
17.05.2007 10:00 10.2 C 95 % 1010.4 hPa 0.2 l/m 4.8 km/h (1 Bft) S-SO 0.00 h 137 W/m 9.5 C 10.2 C 9.8 km/h (2 Bft)
17.05.2007 11:00 10.7 C 96 % 1010.4 hPa 0.4 l/m 2.0 km/h (1 Bft) SW 0.00 h 126 W/m 10.1 C 10.7 C 4.1 km/h (1 Bft)
17.05.2007 12:00 11.4 C 97 % 1010.3 hPa 0.4 l/m 4.2 km/h (1 Bft) SW 0.00 h 212 W/m 10.9 C 11.4 C 8.6 km/h (2 Bft)
17.05.2007 13:00 12.0 C 97 % 1009.8 hPa 0.4 l/m 5.0 km/h (1 Bft) SW 0.00 h 192 W/m 11.5 C 12.0 C 10.2 km/h (2 Bft)
17.05.2007 14:00 12.2 C 97 % 1009.8 hPa 0.0 l/m 3.3 km/h (1 Bft) W-SW 0.00 h 86 W/m 11.7 C 12.2 C 6.8 km/h (2 Bft)
17.05.2007 15:00 12.6 C 96 % 1009.8 hPa 0.4 l/m 4.2 km/h (1 Bft) S-SW 0.00 h 173 W/m 12.0 C 12.6 C 8.8 km/h (2 Bft)
17.05.2007 16:00 13.0 C 97 % 1010.0 hPa 0.0 l/m 3.1 km/h (1 Bft) W-SW 0.00 h 112 W/m 12.6 C 13.0 C 6.3 km/h (2 Bft)
17.05.2007 17:00 13.8 C 97 % 1010.5 hPa 0.4 l/m 6.7 km/h (2 Bft) W 0.00 h 104 W/m 13.3 C 13.8 C 10.8 km/h (2 Bft)
17.05.2007 18:00 14.0 C 97 % 1010.8 hPa 0.2 l/m 2.3 km/h (1 Bft) W 0.00 h 71 W/m 13.5 C 14.0 C 4.8 km/h (1 Bft)
17.05.2007 19:00 14.0 C 95 % 1011.8 hPa 0.0 l/m 2.3 km/h (1 Bft) S-SO 0.00 h 59 W/m 13.3 C 14.0 C 3.7 km/h (1 Bft)
17.05.2007 20:00 13.6 C 96 % 1013.3 hPa 0.0 l/m 0.3 km/h (0 Bft) SO 0.00 h 12 W/m 13.1 C 13.6 C 0.9 km/h (0 Bft)
17.05.2007 21:00 12.6 C 97 % 1014.6 hPa 0.0 l/m 1.0 km/h (0 Bft) O 0.00 h 0 W/m 12.1 C 12.6 C 2.0 km/h (1 Bft)
17.05.2007 22:00 11.5 C 98 % 1015.9 hPa 0.0 l/m 3.2 km/h (1 Bft) O 0.00 h 0 W/m 11.2 C 11.5 C 4.6 km/h (1 Bft)
17.05.2007 23:00 11.4 C 99 % 1017.0 hPa 0.0 l/m 2.0 km/h (1 Bft) O 0.00 h 0 W/m 11.2 C 11.4 C 3.0 km/h (1 Bft)
18.05.2007 00:00 11.4 C 99 % 1017.9 hPa 0.0 l/m 0.9 km/h (0 Bft) O 0.00 h 0 W/m 11.2 C 11.4 C 2.1 km/h (1 Bft)
18.05.2007 01:00 11.1 C 98 % 1018.7 hPa 0.0 l/m 0.0 km/h (0 Bft) N 0.00 h 0 W/m 10.8 C 11.1 C 0.2 km/h (0 Bft)
18.05.2007 02:00 10.5 C 98 % 1018.9 hPa 0.0 l/m 0.0 km/h (0 Bft) N 0.00 h 0 W/m 10.2 C 10.5 C 0.3 km/h (0 Bft)
18.05.2007 03:00 10.1 C 99 % 1019.0 hPa 0.0 l/m 0.0 km/h (0 Bft) O 0.00 h 0 W/m 10.0 C 10.1 C 0.4 km/h (0 Bft)
18.05.2007 04:00 10.0 C 100 % 1019.1 hPa 0.0 l/m 0.2 km/h (0 Bft) O 0.00 h 0 W/m 10.0 C 10.0 C 0.7 km/h (0 Bft)
18.05.2007 05:00 9.8 C 100 % 1019.4 hPa 0.0 l/m 0.0 km/h (0 Bft) O 0.00 h 6 W/m 9.8 C 9.8 C 0.3 km/h (0 Bft)
18.05.2007 06:00 9.9 C 100 % 1019.5 hPa 0.0 l/m 0.0 km/h (0 Bft) O 0.00 h 25 W/m 9.9 C 9.9 C 0.3 km/h (0 Bft)
18.05.2007 07:00 10.3 C 100 % 1019.7 hPa 0.0 l/m 0.2 km/h (0 Bft) O 0.00 h 83 W/m 10.3 C 10.3 C 1.1 km/h (1 Bft)
18.05.2007 08:00 11.0 C 99 % 1019.9 hPa 0.0 l/m 0.7 km/h (0 Bft) O 0.00 h 164 W/m 10.8 C 11.0 C 1.7 km/h (1 Bft)
18.05.2007 09:00 12.7 C 88 % 1019.9 hPa 0.0 l/m 0.8 km/h (0 Bft) O 0.75 h 473 W/m 10.7 C 12.7 C 2.3 km/h (1 Bft)
18.05.2007 10:00 14.5 C 75 % 1019.7 hPa 0.0 l/m 2.2 km/h (1 Bft) O 0.90 h 640 W/m 10.1 C 14.5 C 4.5 km/h (1 Bft)
18.05.2007 11:00 15.6 C 71 % 1019.3 hPa 0.0 l/m 1.6 km/h (1 Bft) N-NO 0.62 h 620 W/m 10.3 C 15.6 C 3.6 km/h (1 Bft)
18.05.2007 12:00 16.3 C 64 % 1019.0 hPa 0.0 l/m 2.9 km/h (1 Bft) W-NW 0.57 h 604 W/m 9.4 C 16.3 C 4.5 km/h (1 Bft)
18.05.2007 13:00 18.3 C 58 % 1018.4 hPa 0.0 l/m 3.4 km/h (1 Bft) NW 0.88 h 824 W/m 9.8 C 18.3 C 5.7 km/h (1 Bft)
18.05.2007 14:00 19.5 C 52 % 1017.9 hPa 0.0 l/m 4.5 km/h (1 Bft) W-NW 1.00 h 838 W/m 9.4 C 19.5 C 7.1 km/h (2 Bft)
18.05.2007 15:00 19.7 C 51 % 1017.4 hPa 0.0 l/m 3.2 km/h (1 Bft) O-SO 1.00 h 745 W/m 9.2 C 19.7 C 5.6 km/h (1 Bft)
18.05.2007 16:00 20.1 C 49 % 1017.1 hPa 0.0 l/m 3.1 km/h (1 Bft) O-SO 1.00 h 625 W/m 9.0 C 20.1 C 5.3 km/h (1 Bft)
18.05.2007 17:00 19.9 C 48 % 1016.7 hPa 0.0 l/m 2.0 km/h (1 Bft) O-SO 1.00 h 478 W/m 8.6 C 19.9 C 3.9 km/h (1 Bft)
18.05.2007 18:00 20.6 C 50 % 1016.3 hPa 0.0 l/m 1.9 km/h (1 Bft) W-NW 1.00 h 310 W/m 9.8 C 20.6 C 3.7 km/h (1 Bft)
18.05.2007 19:00 20.1 C 53 % 1016.0 hPa 0.0 l/m 3.5 km/h (1 Bft) W 0.87 h 154 W/m 10.2 C 20.1 C 5.5 km/h (1 Bft)
18.05.2007 20:00 18.1 C 61 % 1016.0 hPa 0.0 l/m 1.3 km/h (1 Bft) W-NW 0.00 h 32 W/m 10.4 C 18.1 C 2.4 km/h (1 Bft)
18.05.2007 21:00 14.9 C 75 % 1015.9 hPa 0.0 l/m 3.5 km/h (1 Bft) O-SO 0.00 h 0 W/m 10.4 C 14.9 C 4.7 km/h (1 Bft)
18.05.2007 22:00 12.6 C 86 % 1016.2 hPa 0.0 l/m 4.1 km/h (1 Bft) O-SO 0.00 h 0 W/m 10.2 C 12.6 C 5.1 km/h (1 Bft)
18.05.2007 23:00 11.6 C 89 % 1016.2 hPa 0.0 l/m 1.6 km/h (1 Bft) O-SO 0.00 h 0 W/m 9.7 C 11.6 C 2.5 km/h (1 Bft)
19.05.2007 00:00 10.5 C 92 % 1016.0 hPa 0.0 l/m 0.6 km/h (0 Bft) O-SO 0.00 h 0 W/m 9.2 C 10.5 C 1.2 km/h (1 Bft)
19.05.2007 01:00 9.7 C 93 % 1015.8 hPa 0.0 l/m 1.6 km/h (1 Bft) O-SO 0.00 h 0 W/m 8.7 C 9.7 C 2.7 km/h (1 Bft)
19.05.2007 02:00 9.1 C 94 % 1015.7 hPa 0.0 l/m 1.9 km/h (1 Bft) O 0.00 h 0 W/m 8.2 C 9.0 C 3.1 km/h (1 Bft)
19.05.2007 03:00 8.2 C 96 % 1015.7 hPa 0.0 l/m 0.8 km/h (0 Bft) O 0.00 h 0 W/m 7.7 C 8.2 C 1.4 km/h (1 Bft)
19.05.2007 04:00 7.8 C 97 % 1015.8 hPa 0.0 l/m 1.8 km/h (1 Bft) O 0.00 h 0 W/m 7.4 C 7.8 C 2.8 km/h (1 Bft)
19.05.2007 05:00 7.3 C 97 % 1015.8 hPa 0.0 l/m 1.2 km/h (1 Bft) O 0.02 h 7 W/m 6.9 C 7.3 C 2.0 km/h (1 Bft)
19.05.2007 06:00 7.6 C 98 % 1015.9 hPa 0.0 l/m 1.6 km/h (1 Bft) O 0.00 h 34 W/m 7.3 C 7.6 C 2.7 km/h (1 Bft)
19.05.2007 07:00 8.5 C 99 % 1016.1 hPa 0.0 l/m 0.4 km/h (0 Bft) O-SO 0.02 h 120 W/m 8.4 C 8.5 C 1.3 km/h (1 Bft)
19.05.2007 08:00 10.4 C 95 % 1016.2 hPa 0.2 l/m 0.5 km/h (0 Bft) O-NO 0.72 h 317 W/m 9.7 C 10.4 C 1.6 km/h (1 Bft)
19.05.2007 09:00 13.8 C 83 % 1015.8 hPa 0.0 l/m 1.8 km/h (1 Bft) N-NO 1.00 h 521 W/m 10.9 C 13.8 C 3.2 km/h (1 Bft)
19.05.2007 10:00 16.5 C 73 % 1015.3 hPa 0.0 l/m 2.6 km/h (1 Bft) NW 1.00 h 664 W/m 11.6 C 16.5 C 4.5 km/h (1 Bft)
19.05.2007 11:00 19.3 C 66 % 1014.7 hPa 0.0 l/m 2.3 km/h (1 Bft) W-NW 1.00 h 772 W/m 12.8 C 19.3 C 4.3 km/h (1 Bft)
19.05.2007 12:00 21.3 C 60 % 1014.0 hPa 0.0 l/m 3.1 km/h (1 Bft) W 1.00 h 839 W/m 13.3 C 21.3 C 5.1 km/h (1 Bft)
19.05.2007 13:00 22.9 C 52 % 1013.5 hPa 0.0 l/m 3.2 km/h (1 Bft) W-NW 1.00 h 865 W/m 12.5 C 22.9 C 5.3 km/h (1 Bft)
19.05.2007 14:00 24.6 C 44 % 1012.9 hPa 0.0 l/m 3.9 km/h (1 Bft) N-NW 1.00 h 837 W/m 11.5 C 24.6 C 6.2 km/h (2 Bft)
19.05.2007 15:00 25.4 C 40 % 1012.6 hPa 0.0 l/m 3.2 km/h (1 Bft) N 1.00 h 760 W/m 10.6 C 25.4 C 5.4 km/h (1 Bft)
19.05.2007 16:00 26.4 C 35 % 1012.2 hPa 0.0 l/m 4.3 km/h (1 Bft) W-NW 1.00 h 646 W/m 9.7 C 26.4 C 6.2 km/h (2 Bft)
19.05.2007 17:00 26.7 C 33 % 1011.8 hPa 0.0 l/m 3.9 km/h (1 Bft) N-NW 1.00 h 498 W/m 8.9 C 26.7 C 6.2 km/h (2 Bft)
19.05.2007 18:00 26.5 C 33 % 1011.5 hPa 0.0 l/m 3.4 km/h (1 Bft) N 1.00 h 331 W/m 9.0 C 26.5 C 5.4 km/h (1 Bft)
19.05.2007 19:00 25.3 C 34 % 1011.5 hPa 0.0 l/m 1.9 km/h (1 Bft) W 1.00 h 167 W/m 8.3 C 25.3 C 3.4 km/h (1 Bft)
19.05.2007 20:00 22.3 C 47 % 1011.6 hPa 0.0 l/m 0.1 km/h (0 Bft) NW 0.08 h 37 W/m 10.2 C 22.3 C 0.5 km/h (0 Bft)
19.05.2007 21:00 17.7 C 67 % 1012.2 hPa 0.0 l/m 1.9 km/h (1 Bft) O 0.00 h 0 W/m 11.5 C 17.7 C 2.8 km/h (1 Bft)
19.05.2007 22:00 15.5 C 75 % 1012.7 hPa 0.0 l/m 0.4 km/h (0 Bft) O 0.00 h 0 W/m 11.2 C 15.5 C 1.0 km/h (0 Bft)
19.05.2007 23:00 13.9 C 80 % 1012.6 hPa 0.0 l/m 1.2 km/h (1 Bft) O 0.00 h 0 W/m 10.4 C 13.9 C 2.1 km/h (1 Bft)
20.05.2007 00:00 13.3 C 82 % 1012.5 hPa 0.0 l/m 2.6 km/h (1 Bft) O 0.00 h 0 W/m 10.2 C 13.3 C 3.9 km/h (1 Bft)
20.05.2007 01:00 12.4 C 84 % 1012.3 hPa 0.0 l/m 1.7 km/h (1 Bft) O 0.00 h 0 W/m 9.8 C 12.4 C 3.3 km/h (1 Bft)
20.05.2007 02:00 12.1 C 87 % 1012.1 hPa 0.0 l/m 0.4 km/h (0 Bft) O 0.00 h 0 W/m 9.9 C 12.1 C 1.1 km/h (1 Bft)
20.05.2007 03:00 11.3 C 90 % 1012.0 hPa 0.0 l/m 0.6 km/h (0 Bft) O 0.00 h 0 W/m 9.7 C 11.3 C 1.5 km/h (1 Bft)
20.05.2007 04:00 10.7 C 91 % 1011.8 hPa 0.0 l/m 0.2 km/h (0 Bft) O 0.00 h 0 W/m 9.3 C 10.7 C 0.8 km/h (0 Bft)
20.05.2007 05:00 9.9 C 95 % 1011.9 hPa 0.0 l/m 1.2 km/h (1 Bft) O 0.00 h 6 W/m 9.1 C 9.9 C 2.0 km/h (1 Bft)
20.05.2007 06:00 9.9 C 96 % 1012.1 hPa 0.0 l/m 0.0 km/h (0 Bft) N 0.00 h 25 W/m 9.3 C 9.9 C 0.2 km/h (0 Bft)
20.05.2007 07:00 11.7 C 92 % 1012.5 hPa 0.0 l/m 0.3 km/h (0 Bft) O 0.70 h 172 W/m 10.4 C 11.7 C 0.7 km/h (0 Bft)
20.05.2007 08:00 14.8 C 80 % 1012.3 hPa 0.0 l/m 0.6 km/h (0 Bft) O 1.00 h 350 W/m 11.4 C 14.8 C 1.6 km/h (1 Bft)
20.05.2007 09:00 18.4 C 65 % 1012.1 hPa 0.0 l/m 2.0 km/h (1 Bft) O 1.00 h 564 W/m 11.6 C 18.4 C 3.9 km/h (1 Bft)
20.05.2007 10:00 21.0 C 56 % 1011.9 hPa 0.0 l/m 4.4 km/h (1 Bft) SO 1.00 h 845 W/m 11.8 C 21.0 C 7.3 km/h (2 Bft)
20.05.2007 11:00 22.5 C 52 % 1011.9 hPa 0.0 l/m 4.4 km/h (1 Bft) O-SO 1.00 h 827 W/m 12.1 C 22.5 C 7.5 km/h (2 Bft)
20.05.2007 12:00 24.4 C 48 % 1011.8 hPa 0.0 l/m 3.0 km/h (1 Bft) W-NW 1.00 h 855 W/m 12.6 C 24.4 C 5.3 km/h (1 Bft)
20.05.2007 13:00 25.6 C 46 % 1011.5 hPa 0.0 l/m 3.4 km/h (1 Bft) W 1.00 h 864 W/m 13.1 C 25.6 C 5.4 km/h (1 Bft)
20.05.2007 14:00 26.2 C 42 % 1011.3 hPa 0.0 l/m 3.6 km/h (1 Bft) W-NW 0.97 h 807 W/m 12.3 C 26.2 C 5.7 km/h (1 Bft)
20.05.2007 15:00 26.7 C 41 % 1011.2 hPa 0.0 l/m 1.8 km/h (1 Bft) S 1.00 h 746 W/m 12.4 C 26.7 C 3.6 km/h (1 Bft)
20.05.2007 16:00 27.8 C 39 % 1010.9 hPa 0.0 l/m 2.6 km/h (1 Bft) W 1.00 h 630 W/m 12.7 C 27.8 C 4.7 km/h (1 Bft)
20.05.2007 17:00 27.9 C 34 % 1010.7 hPa 0.0 l/m 2.7 km/h (1 Bft) W 0.95 h 476 W/m 10.6 C 27.9 C 4.6 km/h (1 Bft)
20.05.2007 18:00 27.7 C 34 % 1010.5 hPa 0.0 l/m 2.7 km/h (1 Bft) W-NW 0.93 h 310 W/m 10.5 C 27.7 C 4.3 km/h (1 Bft)
20.05.2007 19:00 26.7 C 43 % 1010.4 hPa 0.0 l/m 2.9 km/h (1 Bft) W-NW 0.80 h 152 W/m 12.8 C 26.7 C 4.7 km/h (1 Bft)
20.05.2007 20:00 23.6 C 56 % 1011.1 hPa 0.0 l/m 1.0 km/h (0 Bft) SW 0.00 h 17 W/m 14.1 C 23.6 C 2.5 km/h (1 Bft)
20.05.2007 21:00 22.2 C 60 % 1012.0 hPa 0.0 l/m 5.7 km/h (1 Bft) W-NW 0.00 h 0 W/m 14.0 C 22.2 C 9.5 km/h (2 Bft)
20.05.2007 22:00 21.2 C 63 % 1012.5 hPa 0.0 l/m 2.8 km/h (1 Bft) W-SW 0.00 h 0 W/m 13.7 C 21.2 C 4.9 km/h (1 Bft)
20.05.2007 23:00 19.9 C 69 % 1013.0 hPa 0.0 l/m 2.8 km/h (1 Bft) S-SO 0.00 h 0 W/m 14.0 C 19.9 C 4.4 km/h (1 Bft)
Min-Datum _ 16.05.07 19.05.07 14.05.07 - 14.05.07 - - - 15.05.07 16.05.07 14.05.07
_ Min-Zeit 04:05 17:16 16:15 - 00:07 - - - 17:26 02:17 00:14
Minimum _ 4.5 C 28 % 1005.2 hPa - 0.0 km/h (0 Bft) - - - 3.6 C 4.4 C 0.0 km/h (0 Bft)
Max-Datum _ 20.05.07 16.05.07 15.05.07 14.05.07 14.05.07 - 14.05.07 15.05.07 20.05.07 20.05.07 14.05.07
_ Max-Zeit 16:58 06:35 22:45 17:25 17:28 - 07:55 15:10 16:06 16:58 17:14
Maximum _ 28.3 C 100 % 1020.7 hPa 4.0 l/m 37.5 km/h
W (5 Bft)
- 0.02 h 1123 W/m 15.9 C 28.3 C 52.1 km/h
W-NW (7 Bft)
Durchschnitt _ 13.8 C 80 % 1014.3 hPa #29.6 l/m 3.9 km/h (1 Bft) W #42:40 h 305 W/m 9.6 C 13.7 C 6.6 km/h (2 Bft)
© Kaiko 2007